Time;durP1;ratioP1;P1;durP2;ratioP2;P2;SDS_P1;SDS_P2;PMS_P1;PMS_P2;Temp;Humidity;BMP_temperature;BMP_pressure;BME280_temperature;BME280_humidity;BME280_pressure;Samples;Min_cycle;Max_cycle;Signal;HPM_P1;HPM_P2
2022/07/30 00:02:24;;;;;;;0.70;0.70;;;11.70;99.90;;;;;;5073062;28;20656;-70
2022/07/30 00:04:53;;;;;;;0.50;0.50;;;11.70;99.90;;;;;;5073557;28;20235;-71
2022/07/30 00:07:18;;;;;;;0.50;0.50;;;11.60;99.90;;;;;;5073081;28;20231;-70
2022/07/30 00:09:44;;;;;;;0.70;0.70;;;11.60;99.90;;;;;;5072234;28;20189;-71
2022/07/30 00:12:10;;;;;;;0.52;0.45;;;11.50;99.90;;;;;;5073230;28;20707;-71
2022/07/30 00:14:38;;;;;;;0.50;0.50;;;11.50;99.90;;;;;;5072819;28;20307;-71
2022/07/30 00:17:04;;;;;;;0.40;0.40;;;11.50;99.90;;;;;;5073149;28;20224;-71
2022/07/30 00:19:33;;;;;;;0.60;0.60;;;11.40;99.90;;;;;;5071618;28;20718;-71
2022/07/30 00:21:58;;;;;;;0.50;0.50;;;11.40;99.90;;;;;;5073014;28;20275;-72
2022/07/30 00:24:27;;;;;;;0.60;0.60;;;11.30;99.90;;;;;;5072807;28;20282;-71
2022/07/30 00:26:52;;;;;;;0.68;0.68;;;11.30;99.90;;;;;;5062473;28;20251;-71
2022/07/30 00:29:18;;;;;;;0.60;0.60;;;11.20;99.90;;;;;;5052641;28;20193;-71
2022/07/30 00:31:44;;;;;;;0.63;0.63;;;11.20;99.90;;;;;;5052831;28;20556;-71
2022/07/30 00:34:11;;;;;;;0.50;0.50;;;11.20;99.90;;;;;;5052713;28;20601;-70
2022/07/30 00:36:40;;;;;;;0.50;0.50;;;11.10;99.90;;;;;;5052544;28;20304;-70
2022/07/30 00:39:06;;;;;;;0.50;0.50;;;11.10;99.90;;;;;;5052718;28;20189;-70
2022/07/30 00:41:32;;;;;;;0.40;0.40;;;11.00;99.90;;;;;;5063085;28;20547;-72
2022/07/30 00:43:57;;;;;;;0.50;0.50;;;11.00;99.90;;;;;;5072440;28;20564;-71
2022/07/30 00:46:23;;;;;;;0.57;0.57;;;11.00;99.90;;;;;;5072218;28;20196;-70
2022/07/30 00:48:49;;;;;;;0.60;0.60;;;10.90;99.90;;;;;;5070773;28;20219;-71
2022/07/30 00:51:14;;;;;;;0.45;0.45;;;11.00;99.90;;;;;;5070456;28;20330;-71
2022/07/30 00:53:40;;;;;;;0.40;0.40;;;10.90;99.90;;;;;;5071486;28;20196;-71
2022/07/30 00:56:06;;;;;;;0.60;0.60;;;10.90;99.90;;;;;;5072375;28;20675;-71
2022/07/30 00:58:32;;;;;;;0.57;0.57;;;10.90;99.90;;;;;;5072139;28;20216;-71
2022/07/30 01:01:00;;;;;;;0.50;0.50;;;10.80;99.90;;;;;;5072467;28;20189;-73
2022/07/30 01:03:26;;;;;;;0.63;0.63;;;10.80;99.90;;;;;;5071124;28;20204;-74
2022/07/30 01:05:51;;;;;;;0.70;0.70;;;10.80;99.90;;;;;;5070858;28;20200;-72
2022/07/30 01:08:17;;;;;;;0.70;0.70;;;10.80;99.90;;;;;;5070686;28;20212;-72
2022/07/30 01:10:43;;;;;;;0.60;0.60;;;10.70;99.90;;;;;;5070614;28;20215;-72
2022/07/30 01:13:09;;;;;;;0.50;0.50;;;10.70;99.90;;;;;;5071961;28;20188;-73
2022/07/30 01:15:38;;;;;;;0.60;0.60;;;10.70;99.90;;;;;;5071498;28;20224;-74
2022/07/30 01:18:11;;;;;;;0.57;0.57;;;10.70;99.90;;;;;;5071977;28;20192;-71
2022/07/30 01:20:48;;;;;;;0.50;0.50;;;10.70;99.90;;;;;;5070278;28;20196;-72
2022/07/30 01:23:20;;;;;;;0.50;0.50;;;10.70;99.90;;;;;;5060481;28;20289;-72
2022/07/30 01:25:52;;;;;;;0.50;0.50;;;10.60;99.90;;;;;;5050419;28;20194;-71
2022/07/30 01:28:22;;;;;;;0.60;0.60;;;10.60;99.90;;;;;;5051824;28;20205;-72
2022/07/30 01:30:49;;;;;;;0.50;0.50;;;10.50;99.90;;;;;;5051762;28;20200;-73
2022/07/30 01:33:17;;;;;;;0.60;0.60;;;10.40;99.90;;;;;;5051765;28;20193;-72
2022/07/30 01:35:47;;;;;;;0.60;0.60;;;10.40;99.90;;;;;;5051860;28;20663;-72
2022/07/30 01:38:18;;;;;;;0.60;0.60;;;10.30;99.90;;;;;;5065975;28;20243;-73
2022/07/30 01:40:45;;;;;;;1.05;0.98;;;10.30;99.90;;;;;;5071703;28;20598;-72
2022/07/30 01:43:11;;;;;;;0.80;0.80;;;10.30;99.90;;;;;;5071821;28;20189;-72
2022/07/30 01:45:38;;;;;;;2.15;1.67;;;10.30;99.90;;;;;;5071169;28;20196;-72
2022/07/30 01:48:09;;;;;;;0.60;0.60;;;10.20;99.90;;;;;;5070806;28;20235;-71
2022/07/30 01:50:37;;;;;;;0.63;0.63;;;10.20;99.90;;;;;;5071147;28;20192;-73
2022/07/30 01:53:04;;;;;;;0.70;0.70;;;10.20;99.90;;;;;;5069945;28;20655;-72
2022/07/30 01:55:34;;;;;;;0.50;0.50;;;10.20;99.90;;;;;;5069878;28;20678;-73
2022/07/30 01:58:01;;;;;;;0.50;0.50;;;10.10;99.90;;;;;;5071399;28;20862;-73
2022/07/30 02:00:32;;;;;;;0.60;0.60;;;10.10;99.90;;;;;;5066791;28;20197;-72
2022/07/30 02:02:58;;;;;;;0.50;0.50;;;10.10;99.90;;;;;;5051333;28;20197;-73
2022/07/30 02:05:24;;;;;;;0.57;0.57;;;10.10;99.90;;;;;;5083296;28;20660;-72
2022/07/30 02:08:13;;;;;;;0.60;0.60;;;10.10;99.90;;;;;;5083357;28;20577;-72
2022/07/30 02:10:44;;;;;;;0.60;0.60;;;10.10;99.90;;;;;;5049569;28;20684;-73
2022/07/30 02:13:12;;;;;;;0.63;0.63;;;10.10;99.90;;;;;;5051177;28;20197;-73
2022/07/30 02:15:48;;;;;;;0.60;0.60;;;10.10;99.90;;;;;;5050847;28;20251;-73
2022/07/30 02:18:28;;;;;;;0.60;0.60;;;10.10;99.90;;;;;;5049648;28;20203;-72
2022/07/30 02:21:03;;;;;;;0.60;0.60;;;10.00;99.90;;;;;;5051026;28;20701;-73
2022/07/30 02:23:32;;;;;;;0.60;0.60;;;10.00;99.90;;;;;;5050886;28;20192;-73
2022/07/30 02:25:59;;;;;;;0.57;0.57;;;10.10;99.90;;;;;;5051097;28;20701;-72
2022/07/30 02:28:27;;;;;;;0.80;0.80;;;10.10;99.90;;;;;;5050706;28;20216;-72
2022/07/30 02:30:57;;;;;;;0.70;0.70;;;10.10;99.90;;;;;;5051041;28;20191;-71
2022/07/30 02:33:39;;;;;;;0.55;0.55;;;10.00;99.90;;;;;;5055804;28;20203;-72
2022/07/30 02:36:07;;;;;;;1.02;0.98;;;10.00;99.90;;;;;;5070940;28;20221;-72
2022/07/30 02:38:35;;;;;;;0.50;0.50;;;10.00;99.90;;;;;;5070882;28;20556;-73
2022/07/30 02:41:03;;;;;;;0.55;0.55;;;9.90;99.90;;;;;;5070854;28;20235;-73
2022/07/30 02:43:30;;;;;;;0.50;0.50;;;9.90;99.90;;;;;;5069394;28;20679;-73
2022/07/30 02:45:58;;;;;;;0.50;0.50;;;9.90;99.90;;;;;;5070042;28;20264;-74
2022/07/30 02:48:27;;;;;;;0.60;0.60;;;9.90;99.90;;;;;;5065043;28;20212;-72
2022/07/30 02:50:56;;;;;;;0.60;0.60;;;9.90;99.90;;;;;;5050887;28;20189;-73
2022/07/30 02:53:23;;;;;;;0.50;0.50;;;9.80;99.90;;;;;;5082809;28;20193;-73
2022/07/30 02:55:52;;;;;;;0.60;0.60;;;9.80;99.90;;;;;;5050803;28;20223;-73
2022/07/30 02:58:24;;;;;;;0.50;0.50;;;9.80;99.90;;;;;;5050710;28;20201;-72
2022/07/30 03:00:52;;;;;;;0.40;0.40;;;9.80;99.90;;;;;;5082716;28;20668;-73
2022/07/30 03:03:20;;;;;;;0.70;0.70;;;9.80;99.90;;;;;;5067842;28;20200;-73
2022/07/30 03:05:50;;;;;;;0.60;0.60;;;9.70;99.90;;;;;;5070739;28;20246;-73
2022/07/30 03:08:16;;;;;;;0.60;0.60;;;9.70;99.90;;;;;;5070447;28;20726;-73
2022/07/30 03:10:43;;;;;;;0.50;0.50;;;9.70;99.90;;;;;;5069198;28;20192;-73
2022/07/30 03:13:11;;;;;;;0.50;0.50;;;9.80;99.90;;;;;;5069562;28;20651;-73
2022/07/30 03:15:44;;;;;;;0.50;0.50;;;9.80;99.90;;;;;;5060574;28;20282;-72
2022/07/30 03:18:13;;;;;;;0.50;0.50;;;9.80;99.90;;;;;;5054110;28;20613;-72
2022/07/30 03:20:43;;;;;;;0.50;0.50;;;9.90;99.90;;;;;;5053873;28;20233;-73
2022/07/30 03:23:11;;;;;;;0.52;0.52;;;9.90;99.90;;;;;;5052755;28;20695;-72
2022/07/30 03:25:41;;;;;;;0.43;0.43;;;9.90;99.90;;;;;;5054129;28;20589;-73
2022/07/30 03:28:09;;;;;;;0.60;0.60;;;10.00;99.90;;;;;;5053824;28;20292;-72
2022/07/30 03:30:38;;;;;;;0.50;0.50;;;10.00;99.90;;;;;;5065236;28;20215;-73
2022/07/30 03:33:05;;;;;;;0.60;0.60;;;10.10;99.90;;;;;;5072643;28;20193;-73
2022/07/30 03:35:31;;;;;;;0.60;0.60;;;10.10;99.90;;;;;;5052961;28;20244;-72
2022/07/30 03:37:57;;;;;;;0.60;0.60;;;10.20;99.90;;;;;;5085993;28;20235;-71
2022/07/30 03:40:23;;;;;;;0.60;0.60;;;10.20;99.90;;;;;;5053664;28;20190;-72
2022/07/30 03:42:50;;;;;;;0.50;0.50;;;10.20;99.90;;;;;;5073681;28;20189;-72
2022/07/30 03:45:17;;;;;;;0.70;0.70;;;10.30;99.90;;;;;;5073640;28;20667;-72
2022/07/30 03:47:45;;;;;;;0.60;0.60;;;10.40;99.90;;;;;;5072216;28;20209;-73
2022/07/30 03:50:11;;;;;;;0.50;0.50;;;10.40;99.90;;;;;;5085150;28;20611;-72
2022/07/30 03:52:42;;;;;;;0.60;0.60;;;10.50;99.90;;;;;;5053357;28;20700;-73
2022/07/30 03:55:10;;;;;;;0.80;0.80;;;10.60;99.90;;;;;;5052199;28;20197;-73
2022/07/30 03:57:38;;;;;;;0.50;0.50;;;10.70;99.90;;;;;;5053208;28;20577;-73
2022/07/30 04:00:13;;;;;;;0.50;0.50;;;10.80;99.90;;;;;;5053308;28;20711;-73
2022/07/30 04:02:48;;;;;;;0.50;0.50;;;10.90;99.90;;;;;;5053050;28;20587;-73
2022/07/30 04:05:15;;;;;;;0.60;0.55;;;11.00;99.90;;;;;;5051903;28;20193;-72
2022/07/30 04:07:44;;;;;;;0.50;0.50;;;11.10;99.90;;;;;;5052980;28;20212;-72
2022/07/30 04:10:09;;;;;;;1.00;0.70;;;11.20;99.90;;;;;;5051864;28;20198;-72
2022/07/30 04:12:38;;;;;;;0.60;0.60;;;11.30;99.90;;;;;;5069024;28;20201;-73
2022/07/30 04:15:04;;;;;;;0.50;0.50;;;11.50;99.90;;;;;;5071594;28;20224;-73
2022/07/30 04:17:54;;;;;;;0.50;0.50;;;11.60;99.90;;;;;;5071223;28;20213;-72
2022/07/30 04:20:23;;;;;;;0.50;0.50;;;11.70;99.90;;;;;;5073203;28;20702;-73
2022/07/30 04:22:51;;;;;;;0.60;0.60;;;11.80;99.90;;;;;;5073048;28;20765;-72
2022/07/30 04:25:18;;;;;;;0.70;0.70;;;11.90;99.90;;;;;;5071404;28;20564;-72
2022/07/30 04:27:44;;;;;;;0.50;0.50;;;12.00;99.90;;;;;;5070602;28;20303;-73
2022/07/30 04:30:10;;;;;;;0.50;0.50;;;12.10;99.90;;;;;;5065054;28;20340;-71
2022/07/30 04:32:36;;;;;;;0.50;0.50;;;12.20;99.90;;;;;;5052524;28;20197;-72
2022/07/30 04:35:03;;;;;;;0.68;0.68;;;12.30;99.90;;;;;;5052846;28;20195;-73
2022/07/30 04:37:29;;;;;;;0.50;0.50;;;12.40;99.90;;;;;;5091843;28;20283;-73
2022/07/30 04:39:56;;;;;;;0.40;0.40;;;12.50;99.90;;;;;;5072608;28;20206;-72
2022/07/30 04:42:26;;;;;;;0.63;0.63;;;12.60;99.90;;;;;;5072398;28;20280;-72
2022/07/30 04:44:53;;;;;;;0.65;0.65;;;12.70;99.90;;;;;;5072891;28;20655;-72
2022/07/30 04:47:21;;;;;;;0.40;0.40;;;12.80;99.90;;;;;;5072194;28;20228;-72
2022/07/30 04:49:48;;;;;;;0.50;0.50;;;13.00;99.90;;;;;;5067498;28;20295;-74
2022/07/30 04:52:15;;;;;;;0.40;0.40;;;13.10;99.90;;;;;;5052475;28;20193;-73
2022/07/30 04:55:06;;;;;;;0.50;0.50;;;13.10;99.90;;;;;;5052283;28;20192;-73
2022/07/30 04:57:34;;;;;;;0.60;0.60;;;13.30;99.90;;;;;;5052186;28;20716;-73
2022/07/30 05:00:00;;;;;;;0.60;0.60;;;13.40;99.90;;;;;;5052412;28;20251;-73
2022/07/30 05:02:29;;;;;;;0.70;0.70;;;13.50;99.90;;;;;;5052038;28;20225;-72
2022/07/30 05:04:57;;;;;;;0.50;0.50;;;13.60;99.90;;;;;;5050901;28;20206;-73
2022/07/30 05:07:24;;;;;;;0.40;0.40;;;13.70;99.90;;;;;;5055765;28;20230;-72
2022/07/30 05:09:50;;;;;;;0.55;0.55;;;13.80;99.90;;;;;;5070789;28;20660;-73
2022/07/30 05:12:16;;;;;;;0.40;0.40;;;14.00;99.90;;;;;;5072030;28;20250;-73
2022/07/30 05:14:41;;;;;;;0.57;0.57;;;14.10;99.90;;;;;;5071738;28;20220;-72
2022/07/30 05:17:07;;;;;;;0.43;0.43;;;14.20;99.90;;;;;;5072043;28;20189;-72
2022/07/30 05:19:33;;;;;;;0.60;0.60;;;14.40;99.90;;;;;;5071681;28;20197;-73
2022/07/30 05:21:59;;;;;;;0.32;0.32;;;14.50;99.90;;;;;;5071582;28;20667;-73
2022/07/30 05:24:24;;;;;;;0.40;0.40;;;14.60;99.90;;;;;;5071797;28;20192;-72
2022/07/30 05:26:50;;;;;;;0.40;0.40;;;14.70;99.90;;;;;;5071613;28;20232;-72
2022/07/30 05:29:16;;;;;;;0.40;0.40;;;14.80;99.90;;;;;;5070274;28;20196;-72
2022/07/30 05:31:42;;;;;;;0.55;0.55;;;14.90;99.90;;;;;;5071606;28;20196;-72
2022/07/30 05:34:07;;;;;;;0.40;0.40;;;15.00;99.90;;;;;;5071390;28;20196;-72
2022/07/30 05:36:33;;;;;;;0.40;0.40;;;15.10;99.90;;;;;;5071403;28;20225;-72
2022/07/30 05:38:59;;;;;;;0.30;0.30;;;15.20;99.90;;;;;;5071678;28;20192;-73
2022/07/30 05:41:28;;;;;;;0.40;0.40;;;15.40;99.90;;;;;;5071634;28;20211;-73
2022/07/30 05:43:55;;;;;;;0.30;0.30;;;15.50;99.90;;;;;;5070361;28;20722;-72
2022/07/30 05:46:21;;;;;;;0.40;0.40;;;15.60;99.90;;;;;;5071422;28;20185;-72
2022/07/30 05:48:47;;;;;;;0.30;0.30;;;15.70;99.90;;;;;;5066412;28;20213;-72
2022/07/30 05:51:13;;;;;;;0.40;0.40;;;15.90;99.90;;;;;;5050482;28;20190;-71
2022/07/30 05:53:39;;;;;;;0.40;0.40;;;16.00;99.90;;;;;;5051228;28;20680;-71
2022/07/30 05:56:07;;;;;;;0.40;0.40;;;16.10;99.90;;;;;;5050065;28;20589;-73
2022/07/30 05:58:37;;;;;;;0.40;0.40;;;16.20;99.90;;;;;;5051194;28;20222;-72
2022/07/30 06:01:03;;;;;;;0.30;0.30;;;16.30;99.90;;;;;;5051268;28;20194;-72
2022/07/30 06:03:29;;;;;;;0.40;0.40;;;16.50;99.90;;;;;;5053824;28;20254;-72
2022/07/30 06:05:55;;;;;;;0.30;0.30;;;16.60;99.90;;;;;;5071263;28;20196;-72
2022/07/30 06:08:20;;;;;;;0.30;0.30;;;16.70;99.90;;;;;;5071041;28;20243;-72
2022/07/30 06:10:46;;;;;;;0.30;0.30;;;16.80;99.90;;;;;;5071362;28;20216;-73
2022/07/30 06:13:12;;;;;;;0.50;0.50;;;16.90;99.90;;;;;;5071267;28;20193;-74
2022/07/30 06:15:37;;;;;;;0.30;0.30;;;17.00;99.90;;;;;;5069537;28;20271;-73
2022/07/30 06:18:03;;;;;;;0.38;0.38;;;17.10;99.90;;;;;;5069790;28;20193;-72
2022/07/30 06:20:29;;;;;;;0.22;0.22;;;17.30;99.90;;;;;;5070890;28;20226;-73
2022/07/30 06:22:55;;;;;;;1.10;0.65;;;17.50;99.90;;;;;;5071063;28;20568;-71
2022/07/30 06:25:20;;;;;;;0.30;0.30;;;17.80;99.90;;;;;;5069518;28;20231;-73
2022/07/30 06:27:46;;;;;;;0.30;0.28;;;18.40;99.90;;;;;;5069481;28;20227;-72
2022/07/30 06:30:12;;;;;;;0.40;0.40;;;19.00;99.90;;;;;;5070053;28;20197;-72
2022/07/30 06:32:37;;;;;;;0.40;0.40;;;19.60;99.90;;;;;;5070784;28;20189;-73
2022/07/30 06:35:04;;;;;;;0.20;0.20;;;20.10;99.90;;;;;;5070699;28;20189;-70
2022/07/30 06:37:30;;;;;;;2.17;0.43;;;20.50;99.90;;;;;;5070731;28;20227;-71
2022/07/30 06:39:56;;;;;;;0.40;0.40;;;20.90;99.90;;;;;;5070659;28;20228;-71
2022/07/30 06:42:21;;;;;;;0.38;0.38;;;21.10;99.90;;;;;;5068057;28;20196;-71
2022/07/30 06:44:47;;;;;;;0.88;0.47;;;21.40;99.90;;;;;;5069938;28;20204;-71
2022/07/30 06:47:18;;;;;;;0.70;0.45;;;21.70;99.90;;;;;;5070698;28;20199;-72
2022/07/30 06:49:43;;;;;;;0.75;0.43;;;21.80;99.90;;;;;;5055055;28;20193;-71
2022/07/30 06:52:09;;;;;;;0.20;0.20;;;22.00;99.90;;;;;;5062137;28;20204;-72
2022/07/30 06:54:35;;;;;;;0.65;0.65;;;22.00;99.90;;;;;;5073615;28;20280;-72
2022/07/30 06:57:00;;;;;;;0.30;0.30;;;22.20;99.90;;;;;;5071904;28;20671;-72
2022/07/30 06:59:26;;;;;;;0.75;0.57;;;22.00;99.90;;;;;;5074229;28;20196;-72
2022/07/30 07:01:53;;;;;;;0.10;0.10;;;21.90;99.90;;;;;;5072982;28;20665;-71
2022/07/30 07:04:19;;;;;;;0.30;0.30;;;22.00;99.90;;;;;;5074214;28;20188;-70
2022/07/30 07:06:44;;;;;;;0.43;0.43;;;21.90;99.90;;;;;;5074239;28;20217;-71
2022/07/30 07:09:10;;;;;;;0.30;0.30;;;22.10;99.90;;;;;;5074628;28;20671;-71
2022/07/30 07:11:36;;;;;;;0.20;0.20;;;22.20;99.90;;;;;;5073964;28;20204;-72
2022/07/30 07:14:02;;;;;;;0.15;0.15;;;22.50;99.90;;;;;;5073887;28;20200;-73
2022/07/30 07:16:28;;;;;;;6.85;0.50;;;22.60;99.90;;;;;;5073888;28;20196;-71
2022/07/30 07:18:55;;;;;;;0.25;0.25;;;22.40;99.90;;;;;;5073843;28;20546;-72
2022/07/30 07:21:20;;;;;;;0.40;0.40;;;22.30;99.90;;;;;;5072537;28;20193;-72
2022/07/30 07:23:49;;;;;;;0.93;0.40;;;22.40;99.90;;;;;;5072720;28;20197;-70
2022/07/30 07:26:16;;;;;;;0.20;0.20;;;22.70;99.90;;;;;;5073354;28;20196;-72
2022/07/30 07:28:42;;;;;;;0.32;0.32;;;23.00;99.90;;;;;;5072419;28;20205;-72
2022/07/30 07:31:08;;;;;;;0.35;0.35;;;23.10;99.90;;;;;;5072214;28;20258;-72
2022/07/30 07:33:35;;;;;;;0.20;0.20;;;23.00;99.90;;;;;;5073770;28;20192;-72
2022/07/30 07:36:01;;;;;;;0.20;0.20;;;22.90;99.90;;;;;;5072089;28;20559;-72
2022/07/30 07:38:27;;;;;;;0.25;0.25;;;23.10;99.90;;;;;;5072338;28;20192;-72
2022/07/30 07:40:52;;;;;;;0.25;0.25;;;23.40;99.90;;;;;;5074129;28;20189;-72
2022/07/30 07:43:18;;;;;;;0.40;0.30;;;23.60;99.90;;;;;;5072242;28;20208;-71
2022/07/30 07:45:47;;;;;;;0.20;0.20;;;23.90;99.90;;;;;;5073702;28;20193;-72
2022/07/30 07:48:13;;;;;;;0.40;0.40;;;24.00;99.90;;;;;;5069548;28;20248;-74
2022/07/30 07:50:39;;;;;;;0.20;0.20;;;24.10;99.90;;;;;;5053404;28;20631;-73
2022/07/30 07:53:08;;;;;;;0.17;0.17;;;24.00;99.90;;;;;;5052384;28;20201;-73
2022/07/30 07:55:34;;;;;;;0.98;0.38;;;24.00;99.90;;;;;;5053328;28;20200;-72
2022/07/30 07:58:00;;;;;;;0.28;0.28;;;23.90;99.90;;;;;;5053393;28;20201;-72
2022/07/30 08:00:25;;;;;;;0.22;0.22;;;23.90;99.90;;;;;;5053115;28;20194;-71
2022/07/30 08:02:51;;;;;;;0.30;0.30;;;24.00;99.90;;;;;;5053365;28;20193;-72
2022/07/30 08:05:26;;;;;;;0.13;0.13;;;24.30;99.90;;;;;;5070351;28;20254;-73
2022/07/30 08:07:52;;;;;;;0.43;0.43;;;24.40;99.90;;;;;;5073229;28;20239;-71
2022/07/30 08:10:17;;;;;;;0.38;0.38;;;24.50;99.90;;;;;;5071738;28;20228;-72
2022/07/30 08:12:43;;;;;;;0.40;0.40;;;24.70;99.90;;;;;;5073236;28;20196;-71
2022/07/30 08:15:09;;;;;;;0.20;0.20;;;24.90;99.90;;;;;;5073012;28;20303;-71
2022/07/30 08:17:43;;;;;;;0.35;0.35;;;24.90;99.90;;;;;;5071638;28;20548;-72
2022/07/30 08:20:10;;;;;;;0.20;0.20;;;25.00;99.90;;;;;;5073098;28;20189;-72
2022/07/30 08:22:40;;;;;;;0.52;0.30;;;24.90;99.90;;;;;;5071184;28;20572;-73
2022/07/30 08:25:08;;;;;;;0.30;0.30;;;25.10;99.90;;;;;;5073052;28;20451;-72
2022/07/30 08:27:34;;;;;;;0.20;0.20;;;25.30;99.90;;;;;;5072623;28;20204;-70
2022/07/30 08:30:07;;;;;;;0.25;0.25;;;25.20;99.90;;;;;;5072939;28;20193;-71
2022/07/30 08:32:34;;;;;;;0.20;0.20;;;25.40;99.90;;;;;;5071315;28;20219;-71
2022/07/30 08:35:00;;;;;;;0.20;0.20;;;25.40;99.90;;;;;;5072840;28;20659;-73
2022/07/30 08:37:25;;;;;;;0.30;0.30;;;25.30;99.90;;;;;;5072610;28;20241;-73
2022/07/30 08:39:51;;;;;;;0.20;0.20;;;25.10;99.90;;;;;;5072654;28;20568;-72
2022/07/30 08:42:21;;;;;;;0.03;0.03;;;25.30;99.90;;;;;;5071282;28;20250;-73
2022/07/30 08:44:50;;;;;;;0.10;0.10;;;25.20;99.90;;;;;;5069322;28;20568;-73
2022/07/30 08:47:17;;;;;;;0.70;0.35;;;25.30;99.90;;;;;;5071085;28;20197;-73
2022/07/30 08:49:45;;;;;;;0.20;0.20;;;25.40;99.90;;;;;;5055902;28;20648;-74
2022/07/30 08:52:11;;;;;;;0.10;0.10;;;25.80;99.90;;;;;;5053412;28;20193;-73
2022/07/30 08:54:38;;;;;;;0.05;0.00;;;25.60;99.90;;;;;;5071115;28;20200;-74
2022/07/30 08:57:04;;;;;;;0.05;0.05;;;25.90;99.90;;;;;;5072307;28;20196;-73
2022/07/30 08:59:31;;;;;;;0.10;0.10;;;25.80;99.90;;;;;;5072136;28;20193;-73
2022/07/30 09:01:57;;;;;;;0.00;0.00;;;25.90;99.90;;;;;;5072107;28;20216;-72
2022/07/30 09:04:23;;;;;;;0.10;0.10;;;25.90;99.80;;;;;;5072029;28;20193;-73
2022/07/30 09:06:49;;;;;;;0.55;0.35;;;25.90;99.90;;;;;;5071986;28;20211;-74
2022/07/30 09:09:15;;;;;;;0.20;0.20;;;25.70;99.60;;;;;;5070766;28;20196;-74
2022/07/30 09:11:41;;;;;;;0.20;0.20;;;25.80;99.50;;;;;;5070616;28;20535;-73
2022/07/30 09:14:08;;;;;;;0.35;0.08;;;25.90;99.70;;;;;;5071355;28;20265;-73
2022/07/30 09:16:37;;;;;;;0.08;0.03;;;25.90;99.10;;;;;;5064660;28;20601;-73
2022/07/30 09:19:20;;;;;;;0.05;0.05;;;25.80;98.80;;;;;;5061783;28;20196;-70
2022/07/30 09:22:00;;;;;;;0.20;0.20;;;25.80;99.90;;;;;;5070503;28;20253;-71
2022/07/30 09:24:26;;;;;;;0.43;0.10;;;26.00;99.00;;;;;;5071663;28;20725;-71
2022/07/30 09:26:59;;;;;;;0.10;0.10;;;26.40;99.90;;;;;;5071799;28;20216;-72
2022/07/30 09:29:29;;;;;;;0.10;0.10;;;26.90;99.90;;;;;;5071645;28;20627;-72
2022/07/30 09:32:05;;;;;;;0.00;0.00;;;26.70;99.90;;;;;;5071727;28;20196;-72
2022/07/30 09:34:34;;;;;;;0.28;0.13;;;27.10;99.90;;;;;;5071476;28;20226;-71
2022/07/30 09:37:16;;;;;;;0.32;0.30;;;27.60;99.10;;;;;;5071715;28;20189;-73
2022/07/30 09:39:42;;;;;;;0.28;0.25;;;27.70;99.90;;;;;;5071561;28;20647;-72
2022/07/30 09:42:19;;;;;;;4.65;0.65;;;27.90;99.90;;;;;;5071575;28;20584;-72
2022/07/30 09:44:46;;;;;;;0.00;0.00;;;28.50;99.70;;;;;;5071591;28;20309;-72
2022/07/30 09:47:40;;;;;;;0.08;0.08;;;28.60;97.10;;;;;;5071492;28;20290;-73
2022/07/30 09:50:09;;;;;;;0.00;0.00;;;28.80;93.80;;;;;;5050916;28;20647;-71
2022/07/30 09:52:36;;;;;;;0.25;0.25;;;28.70;94.30;;;;;;5049952;28;20201;-72
2022/07/30 09:55:03;;;;;;;0.25;0.22;;;28.40;92.30;;;;;;5051393;28;20189;-72
2022/07/30 09:57:29;;;;;;;0.22;0.22;;;28.40;93.60;;;;;;5049902;28;20287;-72
2022/07/30 09:59:56;;;;;;;0.10;0.10;;;28.10;92.40;;;;;;5050220;28;20232;-72
2022/07/30 10:02:32;;;;;;;0.08;0.08;;;28.00;92.90;;;;;;5049650;28;20212;-72
2022/07/30 10:05:12;;;;;;;0.20;0.20;;;27.60;90.10;;;;;;5069315;28;20196;-72
2022/07/30 10:07:38;;;;;;;1.45;0.32;;;27.60;92.90;;;;;;5070939;28;20207;-73
2022/07/30 10:10:04;;;;;;;0.05;0.05;;;27.70;92.10;;;;;;5069878;28;20223;-73
2022/07/30 10:12:32;;;;;;;0.10;0.10;;;27.50;90.00;;;;;;5071050;28;20619;-72
2022/07/30 10:15:00;;;;;;;0.65;0.30;;;27.40;89.50;;;;;;5070101;28;20256;-73
2022/07/30 10:17:30;;;;;;;0.10;0.10;;;27.30;90.20;;;;;;5070983;28;20504;-73
2022/07/30 10:19:56;;;;;;;0.10;0.10;;;27.00;89.70;;;;;;5071154;28;20258;-72
2022/07/30 10:22:22;;;;;;;0.00;0.00;;;27.50;88.70;;;;;;5070942;28;20204;-73
2022/07/30 10:24:50;;;;;;;0.43;0.22;;;27.50;86.80;;;;;;5071015;28;20218;-71
2022/07/30 10:27:16;;;;;;;1.00;0.40;;;27.80;88.80;;;;;;5075101;28;20200;-72
2022/07/30 10:29:42;;;;;;;0.10;0.10;;;28.00;89.70;;;;;;5074895;28;20267;-72
2022/07/30 10:32:11;;;;;;;0.10;0.10;;;28.40;90.00;;;;;;5075149;28;20184;-72
2022/07/30 10:34:39;;;;;;;0.30;0.30;;;28.70;89.40;;;;;;5060419;28;20231;-71
2022/07/30 10:37:06;;;;;;;0.20;0.20;;;28.20;87.00;;;;;;5055247;28;20189;-73
2022/07/30 10:39:39;;;;;;;0.20;0.20;;;28.10;84.80;;;;;;5054698;28;20563;-74
2022/07/30 10:42:49;;;;;;;0.03;0.03;;;28.30;87.40;;;;;;5054848;28;20671;-73
2022/07/30 10:45:23;;;;;;;0.00;0.00;;;28.50;84.30;;;;;;5043666;28;20849;-74
2022/07/30 10:47:54;;;;;;;0.00;0.00;;;28.40;86.50;;;;;;5054506;28;20212;-73
2022/07/30 10:50:25;;;;;;;0.20;0.15;;;28.70;90.00;;;;;;5054620;28;20227;-74
2022/07/30 10:52:55;;;;;;;0.00;0.00;;;28.80;78.60;;;;;;5054768;28;20211;-73
2022/07/30 10:55:28;;;;;;;0.00;0.00;;;28.70;80.70;;;;;;5054488;28;20598;-73
2022/07/30 10:58:11;;;;;;;0.10;0.10;;;28.60;84.70;;;;;;5053353;28;20663;-74
2022/07/30 11:00:51;;;;;;;0.32;0.22;;;28.50;86.30;;;;;;5067276;28;20236;-74
2022/07/30 11:03:24;;;;;;;0.40;0.30;;;28.60;84.90;;;;;;5074448;28;20223;-73
2022/07/30 11:06:10;;;;;;;0.00;0.00;;;28.40;80.10;;;;;;5074550;28;20196;-72
2022/07/30 11:08:39;;;;;;;0.52;0.40;;;28.40;83.10;;;;;;5074249;28;20211;-73
2022/07/30 11:11:29;;;;;;;0.32;0.10;;;28.20;83.30;;;;;;5072720;28;20289;-72
2022/07/30 11:13:59;;;;;;;0.00;0.00;;;27.90;86.30;;;;;;5069873;28;20611;-70
2022/07/30 11:16:33;;;;;;;0.93;0.40;;;28.50;89.70;;;;;;5073904;28;20228;-74
2022/07/30 11:19:17;;;;;;;0.15;0.15;;;28.90;84.80;;;;;;5072866;28;20196;-72
2022/07/30 11:21:46;;;;;;;0.17;0.13;;;29.20;82.00;;;;;;5074091;28;20188;-73
2022/07/30 11:24:44;;;;;;;0.13;0.13;;;29.40;83.40;;;;;;5074049;28;20192;-73
2022/07/30 11:27:44;;;;;;;0.28;0.20;;;30.00;86.50;;;;;;5073897;28;20701;-72
2022/07/30 11:30:16;;;;;;;0.13;0.13;;;29.60;84.40;;;;;;5063693;28;20250;-73
2022/07/30 11:32:56;;;;;;;0.65;0.15;;;29.60;84.80;;;;;;5053819;28;20193;-74
2022/07/30 11:35:26;;;;;;;0.50;0.30;;;29.00;81.40;;;;;;5053056;28;20192;-73
2022/07/30 11:37:56;;;;;;;0.05;0.05;;;28.90;82.20;;;;;;5053746;28;20732;-73
2022/07/30 11:40:23;;;;;;;0.57;0.47;;;28.90;82.20;;;;;;5053634;28;20798;-72
2022/07/30 11:42:49;;;;;;;0.30;0.10;;;28.90;79.70;;;;;;5085921;28;20668;-74
2022/07/30 11:45:15;;;;;;;0.20;0.20;;;29.00;80.30;;;;;;5053673;28;20197;-74
2022/07/30 11:47:48;;;;;;;0.00;0.00;;;29.10;84.10;;;;;;5052066;28;20211;-74
2022/07/30 11:50:28;;;;;;;0.00;0.00;;;29.00;84.70;;;;;;5052316;28;20537;-74
2022/07/30 11:53:03;;;;;;;0.10;0.03;;;29.50;84.80;;;;;;5052296;28;20278;-74
2022/07/30 11:55:31;;;;;;;0.10;0.10;;;29.50;87.20;;;;;;5055009;28;20193;-74
2022/07/30 11:57:58;;;;;;;0.40;0.20;;;29.70;83.30;;;;;;5072161;28;20192;-73
2022/07/30 12:00:25;;;;;;;0.20;0.10;;;29.40;85.00;;;;;;5071810;28;20200;-73
2022/07/30 12:02:51;;;;;;;0.35;0.25;;;29.60;79.60;;;;;;5073006;28;20263;-74
2022/07/30 12:05:25;;;;;;;0.10;0.10;;;29.60;81.00;;;;;;5072039;28;20599;-74
2022/07/30 12:07:56;;;;;;;0.20;0.20;;;29.20;80.20;;;;;;5072805;28;20203;-73
2022/07/30 12:10:23;;;;;;;0.10;0.10;;;29.60;82.00;;;;;;5073084;28;20184;-74
2022/07/30 12:12:48;;;;;;;0.28;0.20;;;29.60;80.00;;;;;;5073238;28;20189;-74
2022/07/30 12:15:32;;;;;;;0.22;0.08;;;30.00;82.30;;;;;;5072921;28;20725;-74
2022/07/30 12:17:59;;;;;;;0.20;0.20;;;30.20;81.90;;;;;;5073092;28;20282;-74
2022/07/30 12:20:26;;;;;;;0.20;0.20;;;30.10;84.10;;;;;;5071472;28;20262;-72
2022/07/30 12:22:52;;;;;;;0.32;0.30;;;30.30;82.60;;;;;;5070003;28;20204;-73
2022/07/30 12:25:19;;;;;;;0.52;0.28;;;30.20;78.20;;;;;;5071223;28;20258;-74
2022/07/30 12:27:48;;;;;;;0.10;0.10;;;29.40;78.90;;;;;;5069451;28;20295;-75
2022/07/30 12:30:16;;;;;;;0.25;0.25;;;29.40;84.10;;;;;;5072262;28;20275;-74
2022/07/30 12:32:43;;;;;;;0.32;0.30;;;29.30;80.10;;;;;;5071424;28;20219;-74
2022/07/30 12:35:10;;;;;;;0.13;0.13;;;28.80;79.80;;;;;;5071129;28;20188;-73
2022/07/30 12:37:36;;;;;;;0.20;0.20;;;29.10;82.00;;;;;;5065370;28;20707;-73
2022/07/30 12:40:08;;;;;;;0.15;0.15;;;29.40;81.00;;;;;;5052805;28;20282;-74
2022/07/30 12:42:34;;;;;;;0.22;0.22;;;29.30;83.20;;;;;;5052496;28;20615;-74
2022/07/30 12:45:00;;;;;;;0.10;0.10;;;29.60;83.70;;;;;;5052402;28;20239;-73
2022/07/30 12:47:27;;;;;;;0.47;0.38;;;29.80;83.20;;;;;;5051340;28;20610;-74
2022/07/30 12:49:55;;;;;;;0.10;0.10;;;29.80;80.60;;;;;;5052527;28;20219;-73
2022/07/30 12:52:32;;;;;;;0.60;0.50;;;29.30;81.60;;;;;;5052098;28;20215;-74
2022/07/30 12:55:07;;;;;;;0.50;0.50;;;29.00;83.40;;;;;;5051099;28;20284;-74
2022/07/30 12:58:01;;;;;;;0.52;0.52;;;29.00;85.50;;;;;;5052198;28;20276;-74